sensor_id;sensor_type;location;lat;lon;timestamp;P1;durP1;ratioP1;P2;durP2;ratioP2
2972;SDS011;1496;51.404;7.232;2022-11-30T00:00:17;75.60;;;28.80;;
2972;SDS011;1496;51.404;7.232;2022-11-30T00:02:44;87.83;;;27.93;;
2972;SDS011;1496;51.404;7.232;2022-11-30T00:05:11;66.57;;;28.10;;
2972;SDS011;1496;51.404;7.232;2022-11-30T00:07:37;61.70;;;25.60;;
2972;SDS011;1496;51.404;7.232;2022-11-30T00:10:05;78.30;;;28.87;;
2972;SDS011;1496;51.404;7.232;2022-11-30T00:12:31;93.70;;;30.10;;
2972;SDS011;1496;51.404;7.232;2022-11-30T00:14:57;71.80;;;27.67;;
2972;SDS011;1496;51.404;7.232;2022-11-30T00:17:23;68.97;;;27.73;;
2972;SDS011;1496;51.404;7.232;2022-11-30T00:19:49;76.43;;;27.77;;
2972;SDS011;1496;51.404;7.232;2022-11-30T00:22:14;91.73;;;30.20;;
2972;SDS011;1496;51.404;7.232;2022-11-30T00:24:40;81.47;;;32.27;;
2972;SDS011;1496;51.404;7.232;2022-11-30T00:27:05;89.03;;;29.27;;
2972;SDS011;1496;51.404;7.232;2022-11-30T00:29:31;109.20;;;29.03;;
2972;SDS011;1496;51.404;7.232;2022-11-30T00:31:57;68.13;;;27.37;;
2972;SDS011;1496;51.404;7.232;2022-11-30T00:34:22;85.67;;;30.60;;
2972;SDS011;1496;51.404;7.232;2022-11-30T00:36:48;71.37;;;27.50;;
2972;SDS011;1496;51.404;7.232;2022-11-30T00:39:13;94.67;;;27.80;;
2972;SDS011;1496;51.404;7.232;2022-11-30T00:41:39;85.93;;;29.80;;
2972;SDS011;1496;51.404;7.232;2022-11-30T00:44:04;86.57;;;29.70;;
2972;SDS011;1496;51.404;7.232;2022-11-30T00:46:30;74.10;;;29.40;;
2972;SDS011;1496;51.404;7.232;2022-11-30T00:48:56;91.73;;;28.20;;
2972;SDS011;1496;51.404;7.232;2022-11-30T00:51:22;85.53;;;29.53;;
2972;SDS011;1496;51.404;7.232;2022-11-30T00:53:48;77.60;;;28.10;;
2972;SDS011;1496;51.404;7.232;2022-11-30T00:56:13;67.97;;;27.80;;
2972;SDS011;1496;51.404;7.232;2022-11-30T00:58:39;75.60;;;28.87;;
2972;SDS011;1496;51.404;7.232;2022-11-30T01:01:05;97.17;;;27.93;;
2972;SDS011;1496;51.404;7.232;2022-11-30T01:03:31;72.10;;;26.07;;
2972;SDS011;1496;51.404;7.232;2022-11-30T01:06:01;85.60;;;28.50;;
2972;SDS011;1496;51.404;7.232;2022-11-30T01:08:31;70.97;;;26.10;;
2972;SDS011;1496;51.404;7.232;2022-11-30T01:11:03;70.23;;;25.90;;
2972;SDS011;1496;51.404;7.232;2022-11-30T01:13:49;63.30;;;26.40;;
2972;SDS011;1496;51.404;7.232;2022-11-30T01:16:17;74.50;;;24.80;;
2972;SDS011;1496;51.404;7.232;2022-11-30T01:18:46;65.67;;;26.03;;
2972;SDS011;1496;51.404;7.232;2022-11-30T01:21:13;59.90;;;26.17;;
2972;SDS011;1496;51.404;7.232;2022-11-30T01:23:41;57.60;;;25.80;;
2972;SDS011;1496;51.404;7.232;2022-11-30T01:26:07;68.67;;;25.40;;
2972;SDS011;1496;51.404;7.232;2022-11-30T01:28:34;66.53;;;25.90;;
2972;SDS011;1496;51.404;7.232;2022-11-30T01:31:07;55.47;;;22.10;;
2972;SDS011;1496;51.404;7.232;2022-11-30T01:33:34;71.23;;;24.53;;
2972;SDS011;1496;51.404;7.232;2022-11-30T01:36:01;51.03;;;24.67;;
2972;SDS011;1496;51.404;7.232;2022-11-30T01:38:34;51.50;;;22.50;;
2972;SDS011;1496;51.404;7.232;2022-11-30T01:41:02;51.60;;;25.23;;
2972;SDS011;1496;51.404;7.232;2022-11-30T01:43:45;49.63;;;21.67;;
2972;SDS011;1496;51.404;7.232;2022-11-30T01:46:29;50.00;;;21.23;;
2972;SDS011;1496;51.404;7.232;2022-11-30T01:51:59;46.37;;;23.03;;
2972;SDS011;1496;51.404;7.232;2022-11-30T01:54:32;45.80;;;22.47;;
2972;SDS011;1496;51.404;7.232;2022-11-30T01:57:26;46.07;;;22.23;;
2972;SDS011;1496;51.404;7.232;2022-11-30T01:59:55;55.07;;;21.87;;
2972;SDS011;1496;51.404;7.232;2022-11-30T02:02:25;44.73;;;21.83;;
2972;SDS011;1496;51.404;7.232;2022-11-30T02:05:06;38.90;;;19.70;;
2972;SDS011;1496;51.404;7.232;2022-11-30T02:07:33;36.87;;;19.47;;
2972;SDS011;1496;51.404;7.232;2022-11-30T02:09:59;42.07;;;21.97;;
2972;SDS011;1496;51.404;7.232;2022-11-30T02:15:07;46.70;;;22.10;;
2972;SDS011;1496;51.404;7.232;2022-11-30T02:17:41;46.57;;;21.27;;
2972;SDS011;1496;51.404;7.232;2022-11-30T02:25:49;35.87;;;18.83;;
2972;SDS011;1496;51.404;7.232;2022-11-30T02:31:10;34.50;;;17.47;;
2972;SDS011;1496;51.404;7.232;2022-11-30T02:33:39;39.00;;;18.53;;
2972;SDS011;1496;51.404;7.232;2022-11-30T02:36:06;46.33;;;17.53;;
2972;SDS011;1496;51.404;7.232;2022-11-30T02:38:33;42.20;;;16.63;;
2972;SDS011;1496;51.404;7.232;2022-11-30T02:40:59;41.33;;;17.03;;
2972;SDS011;1496;51.404;7.232;2022-11-30T02:43:26;36.30;;;15.60;;
2972;SDS011;1496;51.404;7.232;2022-11-30T02:48:31;33.07;;;15.57;;
2972;SDS011;1496;51.404;7.232;2022-11-30T02:51:21;36.37;;;16.60;;
2972;SDS011;1496;51.404;7.232;2022-11-30T02:53:49;34.87;;;16.43;;
2972;SDS011;1496;51.404;7.232;2022-11-30T02:56:15;34.50;;;19.87;;
2972;SDS011;1496;51.404;7.232;2022-11-30T02:58:42;49.50;;;20.43;;
2972;SDS011;1496;51.404;7.232;2022-11-30T03:01:11;40.60;;;20.47;;
2972;SDS011;1496;51.404;7.232;2022-11-30T03:03:37;37.40;;;18.90;;
2972;SDS011;1496;51.404;7.232;2022-11-30T03:06:03;32.87;;;18.40;;
2972;SDS011;1496;51.404;7.232;2022-11-30T03:08:29;42.47;;;20.33;;
2972;SDS011;1496;51.404;7.232;2022-11-30T03:10:54;35.10;;;20.77;;
2972;SDS011;1496;51.404;7.232;2022-11-30T03:13:20;37.13;;;18.77;;
2972;SDS011;1496;51.404;7.232;2022-11-30T03:15:45;38.47;;;22.37;;
2972;SDS011;1496;51.404;7.232;2022-11-30T03:18:12;45.43;;;22.60;;
2972;SDS011;1496;51.404;7.232;2022-11-30T03:20:41;46.73;;;25.90;;
2972;SDS011;1496;51.404;7.232;2022-11-30T03:23:07;43.47;;;24.60;;
2972;SDS011;1496;51.404;7.232;2022-11-30T03:25:33;45.67;;;25.27;;
2972;SDS011;1496;51.404;7.232;2022-11-30T03:27:59;46.37;;;24.63;;
2972;SDS011;1496;51.404;7.232;2022-11-30T03:30:26;42.47;;;24.60;;
2972;SDS011;1496;51.404;7.232;2022-11-30T03:32:51;42.47;;;23.60;;
2972;SDS011;1496;51.404;7.232;2022-11-30T03:35:17;50.70;;;28.80;;
2972;SDS011;1496;51.404;7.232;2022-11-30T03:37:43;48.43;;;25.20;;
2972;SDS011;1496;51.404;7.232;2022-11-30T03:40:09;48.27;;;25.80;;
2972;SDS011;1496;51.404;7.232;2022-11-30T03:42:35;47.60;;;25.30;;
2972;SDS011;1496;51.404;7.232;2022-11-30T03:45:02;46.47;;;25.40;;
2972;SDS011;1496;51.404;7.232;2022-11-30T03:47:28;57.80;;;26.30;;
2972;SDS011;1496;51.404;7.232;2022-11-30T03:49:54;47.27;;;24.37;;
2972;SDS011;1496;51.404;7.232;2022-11-30T03:52:19;47.37;;;25.10;;
2972;SDS011;1496;51.404;7.232;2022-11-30T03:54:45;48.03;;;25.27;;
2972;SDS011;1496;51.404;7.232;2022-11-30T03:57:11;41.30;;;23.53;;
2972;SDS011;1496;51.404;7.232;2022-11-30T03:59:36;47.97;;;25.60;;
2972;SDS011;1496;51.404;7.232;2022-11-30T04:02:02;52.73;;;27.77;;
2972;SDS011;1496;51.404;7.232;2022-11-30T04:04:28;45.67;;;25.67;;
2972;SDS011;1496;51.404;7.232;2022-11-30T04:06:54;47.03;;;26.60;;
2972;SDS011;1496;51.404;7.232;2022-11-30T04:09:19;45.17;;;26.10;;
2972;SDS011;1496;51.404;7.232;2022-11-30T04:11:45;52.47;;;27.53;;
2972;SDS011;1496;51.404;7.232;2022-11-30T04:14:10;47.37;;;25.43;;
2972;SDS011;1496;51.404;7.232;2022-11-30T04:16:36;51.43;;;27.30;;
2972;SDS011;1496;51.404;7.232;2022-11-30T04:19:02;51.47;;;26.37;;
2972;SDS011;1496;51.404;7.232;2022-11-30T04:21:27;49.90;;;26.70;;
2972;SDS011;1496;51.404;7.232;2022-11-30T04:23:53;51.53;;;26.90;;
2972;SDS011;1496;51.404;7.232;2022-11-30T04:26:19;57.10;;;27.40;;
2972;SDS011;1496;51.404;7.232;2022-11-30T04:28:45;48.50;;;25.00;;
2972;SDS011;1496;51.404;7.232;2022-11-30T04:31:11;46.50;;;27.30;;
2972;SDS011;1496;51.404;7.232;2022-11-30T04:33:37;47.87;;;26.10;;
2972;SDS011;1496;51.404;7.232;2022-11-30T04:36:03;50.07;;;26.47;;
2972;SDS011;1496;51.404;7.232;2022-11-30T04:38:31;48.83;;;26.10;;
2972;SDS011;1496;51.404;7.232;2022-11-30T04:40:57;50.43;;;27.43;;
2972;SDS011;1496;51.404;7.232;2022-11-30T04:43:24;49.53;;;28.37;;
2972;SDS011;1496;51.404;7.232;2022-11-30T04:45:50;45.50;;;23.50;;
2972;SDS011;1496;51.404;7.232;2022-11-30T04:48:16;45.93;;;26.13;;
2972;SDS011;1496;51.404;7.232;2022-11-30T04:50:42;43.10;;;24.37;;
2972;SDS011;1496;51.404;7.232;2022-11-30T04:53:08;41.00;;;24.17;;
2972;SDS011;1496;51.404;7.232;2022-11-30T04:55:35;44.13;;;24.33;;
2972;SDS011;1496;51.404;7.232;2022-11-30T04:58:02;46.20;;;25.80;;
2972;SDS011;1496;51.404;7.232;2022-11-30T05:00:28;46.60;;;26.00;;
2972;SDS011;1496;51.404;7.232;2022-11-30T05:02:57;40.30;;;24.57;;
2972;SDS011;1496;51.404;7.232;2022-11-30T05:05:22;42.10;;;25.00;;
2972;SDS011;1496;51.404;7.232;2022-11-30T05:07:49;39.90;;;23.27;;
2972;SDS011;1496;51.404;7.232;2022-11-30T05:10:15;43.10;;;23.50;;
2972;SDS011;1496;51.404;7.232;2022-11-30T05:12:41;43.87;;;24.53;;
2972;SDS011;1496;51.404;7.232;2022-11-30T05:15:07;40.23;;;21.80;;
2972;SDS011;1496;51.404;7.232;2022-11-30T05:17:33;39.57;;;22.67;;
2972;SDS011;1496;51.404;7.232;2022-11-30T05:19:59;34.90;;;21.47;;
2972;SDS011;1496;51.404;7.232;2022-11-30T05:22:25;37.37;;;22.73;;
2972;SDS011;1496;51.404;7.232;2022-11-30T05:24:50;42.27;;;22.47;;
2972;SDS011;1496;51.404;7.232;2022-11-30T05:27:16;34.60;;;20.40;;
2972;SDS011;1496;51.404;7.232;2022-11-30T05:29:42;36.07;;;21.53;;
2972;SDS011;1496;51.404;7.232;2022-11-30T05:32:07;32.03;;;20.07;;
2972;SDS011;1496;51.404;7.232;2022-11-30T05:34:33;31.23;;;20.03;;
2972;SDS011;1496;51.404;7.232;2022-11-30T05:36:58;31.50;;;18.87;;
2972;SDS011;1496;51.404;7.232;2022-11-30T05:39:24;29.53;;;19.20;;
2972;SDS011;1496;51.404;7.232;2022-11-30T05:41:50;29.37;;;18.33;;
2972;SDS011;1496;51.404;7.232;2022-11-30T05:44:16;34.17;;;20.70;;
2972;SDS011;1496;51.404;7.232;2022-11-30T05:46:42;34.43;;;20.77;;
2972;SDS011;1496;51.404;7.232;2022-11-30T05:49:07;30.10;;;18.90;;
2972;SDS011;1496;51.404;7.232;2022-11-30T05:51:33;36.27;;;20.87;;
2972;SDS011;1496;51.404;7.232;2022-11-30T05:53:59;32.30;;;20.77;;
2972;SDS011;1496;51.404;7.232;2022-11-30T05:56:24;31.47;;;19.87;;
2972;SDS011;1496;51.404;7.232;2022-11-30T05:58:50;31.87;;;20.10;;
2972;SDS011;1496;51.404;7.232;2022-11-30T06:01:23;32.80;;;20.40;;
2972;SDS011;1496;51.404;7.232;2022-11-30T06:03:50;29.50;;;18.27;;
2972;SDS011;1496;51.404;7.232;2022-11-30T06:06:16;28.73;;;18.20;;
2972;SDS011;1496;51.404;7.232;2022-11-30T06:08:42;40.53;;;22.70;;
2972;SDS011;1496;51.404;7.232;2022-11-30T06:11:08;31.37;;;19.87;;
2972;SDS011;1496;51.404;7.232;2022-11-30T06:13:34;33.47;;;20.53;;
2972;SDS011;1496;51.404;7.232;2022-11-30T06:16:01;33.23;;;19.90;;
2972;SDS011;1496;51.404;7.232;2022-11-30T06:18:28;34.87;;;21.60;;
2972;SDS011;1496;51.404;7.232;2022-11-30T06:20:54;31.33;;;19.63;;
2972;SDS011;1496;51.404;7.232;2022-11-30T06:23:30;31.63;;;19.57;;
2972;SDS011;1496;51.404;7.232;2022-11-30T06:25:56;33.70;;;20.73;;
2972;SDS011;1496;51.404;7.232;2022-11-30T06:28:22;33.50;;;20.40;;
2972;SDS011;1496;51.404;7.232;2022-11-30T06:30:49;28.67;;;18.47;;
2972;SDS011;1496;51.404;7.232;2022-11-30T06:33:14;30.17;;;20.17;;
2972;SDS011;1496;51.404;7.232;2022-11-30T06:35:44;30.50;;;20.37;;
2972;SDS011;1496;51.404;7.232;2022-11-30T06:38:10;37.43;;;20.60;;
2972;SDS011;1496;51.404;7.232;2022-11-30T06:40:36;30.27;;;19.53;;
2972;SDS011;1496;51.404;7.232;2022-11-30T06:43:02;30.80;;;19.13;;
2972;SDS011;1496;51.404;7.232;2022-11-30T06:45:28;31.53;;;20.90;;
2972;SDS011;1496;51.404;7.232;2022-11-30T06:47:54;32.23;;;19.70;;
2972;SDS011;1496;51.404;7.232;2022-11-30T06:50:20;37.00;;;21.80;;
2972;SDS011;1496;51.404;7.232;2022-11-30T06:52:46;34.70;;;21.30;;
2972;SDS011;1496;51.404;7.232;2022-11-30T06:55:12;33.80;;;19.40;;
2972;SDS011;1496;51.404;7.232;2022-11-30T06:57:37;29.93;;;19.60;;
2972;SDS011;1496;51.404;7.232;2022-11-30T07:00:03;32.27;;;20.57;;
2972;SDS011;1496;51.404;7.232;2022-11-30T07:02:29;29.40;;;18.30;;
2972;SDS011;1496;51.404;7.232;2022-11-30T07:04:55;27.90;;;17.30;;
2972;SDS011;1496;51.404;7.232;2022-11-30T07:07:21;33.37;;;20.37;;
2972;SDS011;1496;51.404;7.232;2022-11-30T07:09:48;31.63;;;19.40;;
2972;SDS011;1496;51.404;7.232;2022-11-30T07:12:14;34.90;;;19.30;;
2972;SDS011;1496;51.404;7.232;2022-11-30T07:14:40;31.67;;;19.43;;
2972;SDS011;1496;51.404;7.232;2022-11-30T07:17:05;32.43;;;17.80;;
2972;SDS011;1496;51.404;7.232;2022-11-30T07:19:31;31.97;;;19.63;;
2972;SDS011;1496;51.404;7.232;2022-11-30T07:22:00;31.70;;;19.70;;
2972;SDS011;1496;51.404;7.232;2022-11-30T07:24:26;34.20;;;22.10;;
2972;SDS011;1496;51.404;7.232;2022-11-30T07:27:10;31.10;;;19.23;;
2972;SDS011;1496;51.404;7.232;2022-11-30T07:29:36;29.83;;;18.93;;
2972;SDS011;1496;51.404;7.232;2022-11-30T07:32:02;32.93;;;20.43;;
2972;SDS011;1496;51.404;7.232;2022-11-30T07:34:27;33.50;;;21.33;;
2972;SDS011;1496;51.404;7.232;2022-11-30T07:36:53;36.57;;;20.37;;
2972;SDS011;1496;51.404;7.232;2022-11-30T07:39:19;33.67;;;19.80;;
2972;SDS011;1496;51.404;7.232;2022-11-30T07:41:44;38.80;;;20.23;;
2972;SDS011;1496;51.404;7.232;2022-11-30T07:44:10;37.70;;;21.87;;
2972;SDS011;1496;51.404;7.232;2022-11-30T07:46:37;35.73;;;21.20;;
2972;SDS011;1496;51.404;7.232;2022-11-30T07:49:03;37.87;;;22.00;;
2972;SDS011;1496;51.404;7.232;2022-11-30T07:51:31;37.27;;;22.17;;
2972;SDS011;1496;51.404;7.232;2022-11-30T07:53:57;37.83;;;22.43;;
2972;SDS011;1496;51.404;7.232;2022-11-30T07:56:23;37.23;;;21.67;;
2972;SDS011;1496;51.404;7.232;2022-11-30T07:58:52;36.63;;;22.87;;
2972;SDS011;1496;51.404;7.232;2022-11-30T08:01:20;43.00;;;24.70;;
2972;SDS011;1496;51.404;7.232;2022-11-30T08:03:47;38.50;;;23.83;;
2972;SDS011;1496;51.404;7.232;2022-11-30T08:06:15;38.03;;;25.47;;
2972;SDS011;1496;51.404;7.232;2022-11-30T08:08:46;40.87;;;24.27;;
2972;SDS011;1496;51.404;7.232;2022-11-30T08:11:13;39.50;;;24.50;;
2972;SDS011;1496;51.404;7.232;2022-11-30T08:13:41;37.67;;;22.73;;
2972;SDS011;1496;51.404;7.232;2022-11-30T08:16:09;38.13;;;22.93;;
2972;SDS011;1496;51.404;7.232;2022-11-30T08:18:45;36.93;;;22.50;;
2972;SDS011;1496;51.404;7.232;2022-11-30T08:21:12;35.03;;;21.17;;
2972;SDS011;1496;51.404;7.232;2022-11-30T08:23:43;34.87;;;21.77;;
2972;SDS011;1496;51.404;7.232;2022-11-30T08:26:11;35.03;;;22.87;;
2972;SDS011;1496;51.404;7.232;2022-11-30T08:28:48;40.97;;;22.37;;
2972;SDS011;1496;51.404;7.232;2022-11-30T08:31:16;37.57;;;23.50;;
2972;SDS011;1496;51.404;7.232;2022-11-30T08:33:46;33.83;;;19.93;;
2972;SDS011;1496;51.404;7.232;2022-11-30T08:36:14;37.40;;;22.30;;
2972;SDS011;1496;51.404;7.232;2022-11-30T08:38:42;41.67;;;24.10;;
2972;SDS011;1496;51.404;7.232;2022-11-30T08:41:09;35.90;;;23.13;;
2972;SDS011;1496;51.404;7.232;2022-11-30T08:43:37;38.50;;;22.03;;
2972;SDS011;1496;51.404;7.232;2022-11-30T08:46:03;37.87;;;22.20;;
2972;SDS011;1496;51.404;7.232;2022-11-30T08:48:31;38.07;;;23.13;;
2972;SDS011;1496;51.404;7.232;2022-11-30T08:51:02;37.10;;;23.00;;
2972;SDS011;1496;51.404;7.232;2022-11-30T08:53:30;38.60;;;22.37;;
2972;SDS011;1496;51.404;7.232;2022-11-30T08:55:56;36.93;;;23.23;;
2972;SDS011;1496;51.404;7.232;2022-11-30T08:58:24;38.17;;;23.97;;
2972;SDS011;1496;51.404;7.232;2022-11-30T09:00:50;41.57;;;23.83;;
2972;SDS011;1496;51.404;7.232;2022-11-30T09:03:16;43.87;;;23.50;;
2972;SDS011;1496;51.404;7.232;2022-11-30T09:05:41;41.70;;;24.80;;
2972;SDS011;1496;51.404;7.232;2022-11-30T09:08:07;40.37;;;24.33;;
2972;SDS011;1496;51.404;7.232;2022-11-30T09:10:36;39.20;;;24.13;;
2972;SDS011;1496;51.404;7.232;2022-11-30T09:13:01;38.57;;;24.43;;
2972;SDS011;1496;51.404;7.232;2022-11-30T09:15:27;41.60;;;24.67;;
2972;SDS011;1496;51.404;7.232;2022-11-30T09:17:52;38.00;;;23.50;;
2972;SDS011;1496;51.404;7.232;2022-11-30T09:20:18;36.63;;;23.27;;
2972;SDS011;1496;51.404;7.232;2022-11-30T09:22:44;37.67;;;22.37;;
2972;SDS011;1496;51.404;7.232;2022-11-30T09:25:12;43.03;;;25.13;;
2972;SDS011;1496;51.404;7.232;2022-11-30T09:27:38;40.40;;;23.13;;
2972;SDS011;1496;51.404;7.232;2022-11-30T09:30:04;38.73;;;22.77;;
2972;SDS011;1496;51.404;7.232;2022-11-30T09:32:30;40.60;;;23.27;;
2972;SDS011;1496;51.404;7.232;2022-11-30T09:34:56;35.37;;;23.37;;
2972;SDS011;1496;51.404;7.232;2022-11-30T09:37:21;39.33;;;22.80;;
2972;SDS011;1496;51.404;7.232;2022-11-30T09:39:47;38.57;;;22.17;;
2972;SDS011;1496;51.404;7.232;2022-11-30T09:42:37;41.13;;;22.27;;
2972;SDS011;1496;51.404;7.232;2022-11-30T09:50:41;36.20;;;22.33;;
2972;SDS011;1496;51.404;7.232;2022-11-30T09:53:14;40.80;;;24.17;;
2972;SDS011;1496;51.404;7.232;2022-11-30T09:55:48;39.90;;;23.13;;
2972;SDS011;1496;51.404;7.232;2022-11-30T09:58:35;39.80;;;23.67;;
2972;SDS011;1496;51.404;7.232;2022-11-30T10:01:16;40.47;;;22.90;;
2972;SDS011;1496;51.404;7.232;2022-11-30T10:03:43;41.00;;;23.90;;
2972;SDS011;1496;51.404;7.232;2022-11-30T10:06:10;37.57;;;22.77;;
2972;SDS011;1496;51.404;7.232;2022-11-30T10:08:53;39.40;;;23.97;;
2972;SDS011;1496;51.404;7.232;2022-11-30T10:11:43;34.50;;;20.30;;
2972;SDS011;1496;51.404;7.232;2022-11-30T10:31:10;38.63;;;23.40;;
2972;SDS011;1496;51.404;7.232;2022-11-30T10:33:39;39.57;;;24.43;;
2972;SDS011;1496;51.404;7.232;2022-11-30T10:36:52;44.70;;;24.47;;
2972;SDS011;1496;51.404;7.232;2022-11-30T10:39:03;43.70;;;25.60;;
2972;SDS011;1496;51.404;7.232;2022-11-30T10:42:21;45.13;;;24.03;;
2972;SDS011;1496;51.404;7.232;2022-11-30T10:44:44;40.90;;;23.60;;
2972;SDS011;1496;51.404;7.232;2022-11-30T10:47:23;38.80;;;24.27;;
2972;SDS011;1496;51.404;7.232;2022-11-30T10:49:52;45.17;;;25.17;;
2972;SDS011;1496;51.404;7.232;2022-11-30T10:52:21;42.40;;;23.67;;
2972;SDS011;1496;51.404;7.232;2022-11-30T10:54:53;44.23;;;23.40;;
2972;SDS011;1496;51.404;7.232;2022-11-30T10:57:21;35.67;;;23.60;;
2972;SDS011;1496;51.404;7.232;2022-11-30T10:59:49;47.03;;;25.50;;
2972;SDS011;1496;51.404;7.232;2022-11-30T11:02:38;41.33;;;24.30;;
2972;SDS011;1496;51.404;7.232;2022-11-30T11:05:14;43.10;;;25.40;;
2972;SDS011;1496;51.404;7.232;2022-11-30T11:07:50;43.80;;;23.53;;
2972;SDS011;1496;51.404;7.232;2022-11-30T11:12:59;40.43;;;24.60;;
2972;SDS011;1496;51.404;7.232;2022-11-30T11:15:26;42.83;;;25.30;;
2972;SDS011;1496;51.404;7.232;2022-11-30T11:18:10;41.83;;;23.77;;
2972;SDS011;1496;51.404;7.232;2022-11-30T11:20:36;38.23;;;23.60;;
2972;SDS011;1496;51.404;7.232;2022-11-30T11:23:19;34.83;;;21.83;;
2972;SDS011;1496;51.404;7.232;2022-11-30T11:25:48;45.90;;;26.20;;
2972;SDS011;1496;51.404;7.232;2022-11-30T11:28:17;41.60;;;23.77;;
2972;SDS011;1496;51.404;7.232;2022-11-30T11:30:47;42.93;;;24.63;;
2972;SDS011;1496;51.404;7.232;2022-11-30T11:35:42;41.10;;;23.80;;
2972;SDS011;1496;51.404;7.232;2022-11-30T11:40:51;40.47;;;23.33;;
2972;SDS011;1496;51.404;7.232;2022-11-30T11:43:19;35.93;;;23.07;;
2972;SDS011;1496;51.404;7.232;2022-11-30T11:45:50;34.30;;;20.93;;
2972;SDS011;1496;51.404;7.232;2022-11-30T11:48:35;40.53;;;22.20;;
2972;SDS011;1496;51.404;7.232;2022-11-30T11:51:05;35.03;;;21.33;;
2972;SDS011;1496;51.404;7.232;2022-11-30T11:58:46;37.03;;;23.00;;
2972;SDS011;1496;51.404;7.232;2022-11-30T12:01:18;36.77;;;21.90;;
2972;SDS011;1496;51.404;7.232;2022-11-30T12:06:41;35.03;;;21.33;;
2972;SDS011;1496;51.404;7.232;2022-11-30T12:09:14;35.37;;;20.87;;
2972;SDS011;1496;51.404;7.232;2022-11-30T12:11:46;33.87;;;21.63;;
2972;SDS011;1496;51.404;7.232;2022-11-30T12:14:13;32.50;;;20.30;;
2972;SDS011;1496;51.404;7.232;2022-11-30T12:16:54;36.43;;;20.27;;
2972;SDS011;1496;51.404;7.232;2022-11-30T12:25:14;34.67;;;18.20;;
2972;SDS011;1496;51.404;7.232;2022-11-30T12:36:35;30.50;;;18.10;;
2972;SDS011;1496;51.404;7.232;2022-11-30T12:39:36;31.47;;;17.10;;
2972;SDS011;1496;51.404;7.232;2022-11-30T12:42:03;25.73;;;17.00;;
2972;SDS011;1496;51.404;7.232;2022-11-30T12:44:37;31.50;;;19.10;;
2972;SDS011;1496;51.404;7.232;2022-11-30T12:47:19;32.83;;;20.00;;
2972;SDS011;1496;51.404;7.232;2022-11-30T12:50:17;30.00;;;18.50;;
2972;SDS011;1496;51.404;7.232;2022-11-30T12:58:52;32.27;;;20.10;;
2972;SDS011;1496;51.404;7.232;2022-11-30T13:04:28;28.03;;;17.80;;
2972;SDS011;1496;51.404;7.232;2022-11-30T13:06:59;32.80;;;19.67;;
2972;SDS011;1496;51.404;7.232;2022-11-30T13:09:36;31.60;;;18.17;;
2972;SDS011;1496;51.404;7.232;2022-11-30T13:12:45;36.20;;;19.13;;
2972;SDS011;1496;51.404;7.232;2022-11-30T13:15:05;27.70;;;17.13;;
2972;SDS011;1496;51.404;7.232;2022-11-30T13:17:52;29.57;;;18.33;;
2972;SDS011;1496;51.404;7.232;2022-11-30T13:20:43;32.40;;;18.70;;
2972;SDS011;1496;51.404;7.232;2022-11-30T13:23:12;31.37;;;19.03;;
2972;SDS011;1496;51.404;7.232;2022-11-30T13:25:48;29.70;;;16.50;;
2972;SDS011;1496;51.404;7.232;2022-11-30T13:31:22;29.43;;;17.30;;
2972;SDS011;1496;51.404;7.232;2022-11-30T13:41:39;30.97;;;20.10;;
2972;SDS011;1496;51.404;7.232;2022-11-30T13:44:29;35.23;;;19.77;;
2972;SDS011;1496;51.404;7.232;2022-11-30T13:47:00;36.03;;;18.20;;
2972;SDS011;1496;51.404;7.232;2022-11-30T13:49:33;39.10;;;19.90;;
2972;SDS011;1496;51.404;7.232;2022-11-30T13:52:03;30.90;;;17.30;;
2972;SDS011;1496;51.404;7.232;2022-11-30T13:59:55;31.07;;;17.93;;
2972;SDS011;1496;51.404;7.232;2022-11-30T14:07:42;33.33;;;17.70;;
2972;SDS011;1496;51.404;7.232;2022-11-30T14:13:00;32.27;;;18.10;;
2972;SDS011;1496;51.404;7.232;2022-11-30T14:15:50;29.63;;;17.27;;
2972;SDS011;1496;51.404;7.232;2022-11-30T14:31:32;33.93;;;17.30;;
2972;SDS011;1496;51.404;7.232;2022-11-30T14:36:42;28.83;;;17.40;;
2972;SDS011;1496;51.404;7.232;2022-11-30T14:39:31;33.07;;;17.47;;
2972;SDS011;1496;51.404;7.232;2022-11-30T14:41:59;33.33;;;17.07;;
2972;SDS011;1496;51.404;7.232;2022-11-30T14:44:25;34.67;;;17.67;;
2972;SDS011;1496;51.404;7.232;2022-11-30T14:46:51;28.40;;;16.50;;
2972;SDS011;1496;51.404;7.232;2022-11-30T14:49:18;30.83;;;18.37;;
2972;SDS011;1496;51.404;7.232;2022-11-30T14:51:48;27.57;;;16.57;;
2972;SDS011;1496;51.404;7.232;2022-11-30T14:54:24;27.17;;;15.80;;
2972;SDS011;1496;51.404;7.232;2022-11-30T14:57:26;24.70;;;15.30;;
2972;SDS011;1496;51.404;7.232;2022-11-30T14:59:58;24.77;;;15.00;;
2972;SDS011;1496;51.404;7.232;2022-11-30T15:02:34;25.43;;;14.73;;
2972;SDS011;1496;51.404;7.232;2022-11-30T15:05:05;25.77;;;13.87;;
2972;SDS011;1496;51.404;7.232;2022-11-30T15:07:33;25.17;;;14.70;;
2972;SDS011;1496;51.404;7.232;2022-11-30T15:10:04;29.50;;;16.80;;
2972;SDS011;1496;51.404;7.232;2022-11-30T15:12:33;25.43;;;15.17;;
2972;SDS011;1496;51.404;7.232;2022-11-30T15:15:04;26.17;;;14.70;;
2972;SDS011;1496;51.404;7.232;2022-11-30T15:17:45;29.33;;;16.60;;
2972;SDS011;1496;51.404;7.232;2022-11-30T15:20:23;28.57;;;14.93;;
2972;SDS011;1496;51.404;7.232;2022-11-30T15:22:57;27.93;;;14.33;;
2972;SDS011;1496;51.404;7.232;2022-11-30T15:25:32;24.63;;;15.00;;
2972;SDS011;1496;51.404;7.232;2022-11-30T15:28:01;27.13;;;14.83;;
2972;SDS011;1496;51.404;7.232;2022-11-30T15:30:30;26.73;;;16.17;;
2972;SDS011;1496;51.404;7.232;2022-11-30T15:32:59;28.27;;;15.70;;
2972;SDS011;1496;51.404;7.232;2022-11-30T15:35:25;29.77;;;16.37;;
2972;SDS011;1496;51.404;7.232;2022-11-30T15:37:51;27.40;;;15.30;;
2972;SDS011;1496;51.404;7.232;2022-11-30T15:40:29;29.37;;;15.83;;
2972;SDS011;1496;51.404;7.232;2022-11-30T15:42:57;25.30;;;15.50;;
2972;SDS011;1496;51.404;7.232;2022-11-30T15:47:53;30.67;;;16.47;;
2972;SDS011;1496;51.404;7.232;2022-11-30T15:52:54;31.40;;;15.87;;
2972;SDS011;1496;51.404;7.232;2022-11-30T15:58:28;21.20;;;13.27;;
2972;SDS011;1496;51.404;7.232;2022-11-30T16:01:12;22.70;;;12.47;;
2972;SDS011;1496;51.404;7.232;2022-11-30T16:03:58;22.10;;;14.13;;
2972;SDS011;1496;51.404;7.232;2022-11-30T16:09:01;20.80;;;11.90;;
2972;SDS011;1496;51.404;7.232;2022-11-30T16:11:41;19.63;;;13.13;;
2972;SDS011;1496;51.404;7.232;2022-11-30T16:14:07;27.37;;;14.90;;
2972;SDS011;1496;51.404;7.232;2022-11-30T16:16:38;25.10;;;13.97;;
2972;SDS011;1496;51.404;7.232;2022-11-30T16:19:04;22.97;;;13.50;;
2972;SDS011;1496;51.404;7.232;2022-11-30T16:21:29;30.40;;;15.27;;
2972;SDS011;1496;51.404;7.232;2022-11-30T16:23:55;23.90;;;14.77;;
2972;SDS011;1496;51.404;7.232;2022-11-30T16:26:21;30.30;;;16.63;;
2972;SDS011;1496;51.404;7.232;2022-11-30T16:28:46;31.63;;;17.30;;
2972;SDS011;1496;51.404;7.232;2022-11-30T16:31:13;28.40;;;15.53;;
2972;SDS011;1496;51.404;7.232;2022-11-30T16:33:41;29.57;;;17.77;;
2972;SDS011;1496;51.404;7.232;2022-11-30T16:36:10;32.47;;;17.63;;
2972;SDS011;1496;51.404;7.232;2022-11-30T16:38:38;25.40;;;15.17;;
2972;SDS011;1496;51.404;7.232;2022-11-30T16:43:43;24.27;;;14.17;;
2972;SDS011;1496;51.404;7.232;2022-11-30T16:46:12;23.47;;;14.37;;
2972;SDS011;1496;51.404;7.232;2022-11-30T16:48:39;30.60;;;14.50;;
2972;SDS011;1496;51.404;7.232;2022-11-30T16:51:11;26.23;;;15.17;;
2972;SDS011;1496;51.404;7.232;2022-11-30T16:54:08;24.77;;;14.30;;
2972;SDS011;1496;51.404;7.232;2022-11-30T16:56:38;25.83;;;14.27;;
2972;SDS011;1496;51.404;7.232;2022-11-30T16:59:07;26.20;;;14.17;;
2972;SDS011;1496;51.404;7.232;2022-11-30T17:01:34;23.07;;;13.63;;
2972;SDS011;1496;51.404;7.232;2022-11-30T17:06:37;25.87;;;14.93;;
2972;SDS011;1496;51.404;7.232;2022-11-30T17:09:02;21.57;;;13.47;;
2972;SDS011;1496;51.404;7.232;2022-11-30T17:11:30;19.80;;;12.23;;
2972;SDS011;1496;51.404;7.232;2022-11-30T17:13:57;20.93;;;12.80;;
2972;SDS011;1496;51.404;7.232;2022-11-30T17:16:23;23.87;;;12.43;;